sensor_id;sensor_type;location;lat;lon;timestamp;P1;durP1;ratioP1;P2;durP2;ratioP2
33858;SDS011;20156;47.486;12.074;2022-09-29T00:01:46;3.77;;;2.47;;
33858;SDS011;20156;47.486;12.074;2022-09-29T00:04:12;1.47;;;1.37;;
33858;SDS011;20156;47.486;12.074;2022-09-29T00:06:37;1.83;;;1.63;;
33858;SDS011;20156;47.486;12.074;2022-09-29T00:09:03;2.70;;;2.07;;
33858;SDS011;20156;47.486;12.074;2022-09-29T00:11:28;2.67;;;2.07;;
33858;SDS011;20156;47.486;12.074;2022-09-29T00:13:54;3.53;;;2.63;;
33858;SDS011;20156;47.486;12.074;2022-09-29T00:16:20;2.20;;;1.80;;
33858;SDS011;20156;47.486;12.074;2022-09-29T00:18:45;1.97;;;1.60;;
33858;SDS011;20156;47.486;12.074;2022-09-29T00:21:15;3.80;;;2.20;;
33858;SDS011;20156;47.486;12.074;2022-09-29T00:23:45;1.40;;;1.30;;
33858;SDS011;20156;47.486;12.074;2022-09-29T00:26:12;2.90;;;1.40;;
33858;SDS011;20156;47.486;12.074;2022-09-29T00:28:50;2.37;;;1.30;;
33858;SDS011;20156;47.486;12.074;2022-09-29T00:31:17;3.00;;;2.43;;
33858;SDS011;20156;47.486;12.074;2022-09-29T00:33:43;2.13;;;1.83;;
33858;SDS011;20156;47.486;12.074;2022-09-29T00:36:10;1.63;;;1.53;;
33858;SDS011;20156;47.486;12.074;2022-09-29T00:38:37;4.07;;;3.37;;
33858;SDS011;20156;47.486;12.074;2022-09-29T00:41:03;2.53;;;1.80;;
33858;SDS011;20156;47.486;12.074;2022-09-29T00:46:14;4.73;;;2.40;;
33858;SDS011;20156;47.486;12.074;2022-09-29T00:48:44;2.20;;;1.40;;
33858;SDS011;20156;47.486;12.074;2022-09-29T00:51:11;2.07;;;1.50;;
33858;SDS011;20156;47.486;12.074;2022-09-29T00:53:37;1.47;;;1.37;;
33858;SDS011;20156;47.486;12.074;2022-09-29T00:56:06;1.83;;;1.60;;
33858;SDS011;20156;47.486;12.074;2022-09-29T00:59:19;1.87;;;1.30;;
33858;SDS011;20156;47.486;12.074;2022-09-29T01:01:23;2.00;;;1.80;;
33858;SDS011;20156;47.486;12.074;2022-09-29T01:03:53;3.40;;;3.00;;
33858;SDS011;20156;47.486;12.074;2022-09-29T01:06:28;4.50;;;3.47;;
33858;SDS011;20156;47.486;12.074;2022-09-29T01:09:04;4.33;;;2.50;;
33858;SDS011;20156;47.486;12.074;2022-09-29T01:11:33;1.83;;;1.73;;
33858;SDS011;20156;47.486;12.074;2022-09-29T01:13:59;3.40;;;2.93;;
33858;SDS011;20156;47.486;12.074;2022-09-29T01:16:29;1.50;;;1.40;;
33858;SDS011;20156;47.486;12.074;2022-09-29T01:18:57;2.77;;;2.57;;
33858;SDS011;20156;47.486;12.074;2022-09-29T01:21:31;2.80;;;1.83;;
33858;SDS011;20156;47.486;12.074;2022-09-29T01:33:06;2.27;;;2.07;;
33858;SDS011;20156;47.486;12.074;2022-09-29T01:46:55;2.77;;;2.43;;
33858;SDS011;20156;47.486;12.074;2022-09-29T01:49:25;3.00;;;2.03;;
33858;SDS011;20156;47.486;12.074;2022-09-29T01:52:16;3.43;;;2.50;;
33858;SDS011;20156;47.486;12.074;2022-09-29T01:57:20;2.40;;;2.17;;
33858;SDS011;20156;47.486;12.074;2022-09-29T01:59:56;2.07;;;1.87;;
33858;SDS011;20156;47.486;12.074;2022-09-29T02:02:37;1.93;;;1.60;;
33858;SDS011;20156;47.486;12.074;2022-09-29T02:05:08;3.57;;;2.10;;
33858;SDS011;20156;47.486;12.074;2022-09-29T02:07:41;1.90;;;1.80;;
33858;SDS011;20156;47.486;12.074;2022-09-29T02:10:17;2.40;;;2.20;;
33858;SDS011;20156;47.486;12.074;2022-09-29T02:12:47;2.83;;;2.53;;
33858;SDS011;20156;47.486;12.074;2022-09-29T02:15:18;2.40;;;2.20;;
33858;SDS011;20156;47.486;12.074;2022-09-29T02:17:50;2.87;;;2.40;;
33858;SDS011;20156;47.486;12.074;2022-09-29T02:20:17;2.70;;;2.47;;
33858;SDS011;20156;47.486;12.074;2022-09-29T02:22:43;3.00;;;2.70;;
33858;SDS011;20156;47.486;12.074;2022-09-29T02:25:09;3.00;;;2.70;;
33858;SDS011;20156;47.486;12.074;2022-09-29T02:27:36;5.43;;;3.90;;
33858;SDS011;20156;47.486;12.074;2022-09-29T02:30:02;3.83;;;3.13;;
33858;SDS011;20156;47.486;12.074;2022-09-29T02:32:30;3.20;;;2.90;;
33858;SDS011;20156;47.486;12.074;2022-09-29T02:34:58;16.50;;;10.87;;
33858;SDS011;20156;47.486;12.074;2022-09-29T02:42:31;10.57;;;7.43;;
33858;SDS011;20156;47.486;12.074;2022-09-29T02:45:14;10.03;;;6.83;;
33858;SDS011;20156;47.486;12.074;2022-09-29T02:56:43;7.30;;;6.10;;
33858;SDS011;20156;47.486;12.074;2022-09-29T02:59:20;7.50;;;6.53;;
33858;SDS011;20156;47.486;12.074;2022-09-29T03:01:52;10.77;;;7.43;;
33858;SDS011;20156;47.486;12.074;2022-09-29T03:04:19;7.00;;;6.00;;
33858;SDS011;20156;47.486;12.074;2022-09-29T03:06:47;7.07;;;6.07;;
33858;SDS011;20156;47.486;12.074;2022-09-29T03:09:13;7.03;;;6.33;;
33858;SDS011;20156;47.486;12.074;2022-09-29T03:11:38;8.60;;;6.50;;
33858;SDS011;20156;47.486;12.074;2022-09-29T03:14:03;9.90;;;7.37;;
33858;SDS011;20156;47.486;12.074;2022-09-29T03:16:30;10.43;;;6.67;;
33858;SDS011;20156;47.486;12.074;2022-09-29T03:18:56;20.47;;;15.40;;
33858;SDS011;20156;47.486;12.074;2022-09-29T03:21:22;12.87;;;10.60;;
33858;SDS011;20156;47.486;12.074;2022-09-29T03:23:47;8.50;;;7.17;;
33858;SDS011;20156;47.486;12.074;2022-09-29T03:26:13;9.30;;;7.87;;
33858;SDS011;20156;47.486;12.074;2022-09-29T03:28:38;10.40;;;9.37;;
33858;SDS011;20156;47.486;12.074;2022-09-29T03:31:04;11.60;;;10.60;;
33858;SDS011;20156;47.486;12.074;2022-09-29T03:33:34;6.57;;;5.83;;
33858;SDS011;20156;47.486;12.074;2022-09-29T03:36:02;7.30;;;6.60;;
33858;SDS011;20156;47.486;12.074;2022-09-29T03:38:29;8.97;;;7.00;;
33858;SDS011;20156;47.486;12.074;2022-09-29T03:40:55;9.30;;;7.97;;
33858;SDS011;20156;47.486;12.074;2022-09-29T03:43:20;12.07;;;9.13;;
33858;SDS011;20156;47.486;12.074;2022-09-29T03:45:47;7.70;;;6.90;;
33858;SDS011;20156;47.486;12.074;2022-09-29T03:48:13;11.70;;;8.07;;
33858;SDS011;20156;47.486;12.074;2022-09-29T03:50:39;13.87;;;7.90;;
33858;SDS011;20156;47.486;12.074;2022-09-29T03:53:04;9.83;;;6.90;;
33858;SDS011;20156;47.486;12.074;2022-09-29T03:55:30;10.43;;;8.80;;
33858;SDS011;20156;47.486;12.074;2022-09-29T03:57:55;13.93;;;9.17;;
33858;SDS011;20156;47.486;12.074;2022-09-29T04:00:21;10.07;;;8.20;;
33858;SDS011;20156;47.486;12.074;2022-09-29T04:02:46;11.17;;;9.23;;
33858;SDS011;20156;47.486;12.074;2022-09-29T04:05:12;11.43;;;9.50;;
33858;SDS011;20156;47.486;12.074;2022-09-29T04:07:37;11.83;;;9.87;;
33858;SDS011;20156;47.486;12.074;2022-09-29T04:10:03;14.87;;;10.60;;
33858;SDS011;20156;47.486;12.074;2022-09-29T04:12:29;18.83;;;14.17;;
33858;SDS011;20156;47.486;12.074;2022-09-29T04:14:54;15.70;;;12.73;;
33858;SDS011;20156;47.486;12.074;2022-09-29T04:17:19;14.57;;;10.50;;
33858;SDS011;20156;47.486;12.074;2022-09-29T04:19:45;15.53;;;9.77;;
33858;SDS011;20156;47.486;12.074;2022-09-29T04:22:10;13.17;;;10.00;;
33858;SDS011;20156;47.486;12.074;2022-09-29T04:24:38;13.70;;;9.73;;
33858;SDS011;20156;47.486;12.074;2022-09-29T04:27:04;15.00;;;9.40;;
33858;SDS011;20156;47.486;12.074;2022-09-29T04:29:29;15.33;;;9.53;;
33858;SDS011;20156;47.486;12.074;2022-09-29T04:31:55;18.33;;;10.90;;
33858;SDS011;20156;47.486;12.074;2022-09-29T04:34:20;13.13;;;10.83;;
33858;SDS011;20156;47.486;12.074;2022-09-29T04:36:45;15.37;;;10.53;;
33858;SDS011;20156;47.486;12.074;2022-09-29T04:39:11;14.27;;;10.47;;
33858;SDS011;20156;47.486;12.074;2022-09-29T04:41:37;11.80;;;9.77;;
33858;SDS011;20156;47.486;12.074;2022-09-29T04:44:03;12.40;;;9.70;;
33858;SDS011;20156;47.486;12.074;2022-09-29T04:46:30;12.20;;;9.83;;
33858;SDS011;20156;47.486;12.074;2022-09-29T04:48:55;15.17;;;10.70;;
33858;SDS011;20156;47.486;12.074;2022-09-29T04:51:20;11.80;;;9.40;;
33858;SDS011;20156;47.486;12.074;2022-09-29T04:53:46;12.67;;;9.97;;
33858;SDS011;20156;47.486;12.074;2022-09-29T04:56:11;12.80;;;9.83;;
33858;SDS011;20156;47.486;12.074;2022-09-29T04:58:37;11.20;;;9.57;;
33858;SDS011;20156;47.486;12.074;2022-09-29T05:01:06;11.53;;;9.80;;
33858;SDS011;20156;47.486;12.074;2022-09-29T05:03:33;16.60;;;12.00;;
33858;SDS011;20156;47.486;12.074;2022-09-29T05:05:59;13.80;;;9.93;;
33858;SDS011;20156;47.486;12.074;2022-09-29T05:08:24;15.00;;;11.33;;
33858;SDS011;20156;47.486;12.074;2022-09-29T05:10:50;18.00;;;13.60;;
33858;SDS011;20156;47.486;12.074;2022-09-29T05:13:15;17.23;;;12.77;;
33858;SDS011;20156;47.486;12.074;2022-09-29T05:15:41;16.07;;;12.53;;
33858;SDS011;20156;47.486;12.074;2022-09-29T05:18:06;16.80;;;11.77;;
33858;SDS011;20156;47.486;12.074;2022-09-29T05:20:32;17.13;;;12.33;;
33858;SDS011;20156;47.486;12.074;2022-09-29T05:22:57;19.00;;;12.70;;
33858;SDS011;20156;47.486;12.074;2022-09-29T05:25:24;17.20;;;12.50;;
33858;SDS011;20156;47.486;12.074;2022-09-29T05:27:51;13.27;;;10.57;;
33858;SDS011;20156;47.486;12.074;2022-09-29T05:30:16;15.67;;;11.37;;
33858;SDS011;20156;47.486;12.074;2022-09-29T05:32:42;13.53;;;10.27;;
33858;SDS011;20156;47.486;12.074;2022-09-29T05:35:08;12.60;;;9.57;;
33858;SDS011;20156;47.486;12.074;2022-09-29T05:37:34;13.53;;;10.47;;
33858;SDS011;20156;47.486;12.074;2022-09-29T05:39:59;13.30;;;10.33;;
33858;SDS011;20156;47.486;12.074;2022-09-29T05:42:25;15.17;;;11.93;;
33858;SDS011;20156;47.486;12.074;2022-09-29T05:44:51;14.73;;;11.47;;
33858;SDS011;20156;47.486;12.074;2022-09-29T05:47:17;15.90;;;12.00;;
33858;SDS011;20156;47.486;12.074;2022-09-29T05:49:42;15.80;;;12.50;;
33858;SDS011;20156;47.486;12.074;2022-09-29T05:52:08;12.20;;;10.13;;
33858;SDS011;20156;47.486;12.074;2022-09-29T05:54:33;12.47;;;9.33;;
33858;SDS011;20156;47.486;12.074;2022-09-29T05:56:59;11.03;;;9.63;;
33858;SDS011;20156;47.486;12.074;2022-09-29T05:59:24;14.30;;;11.23;;
33858;SDS011;20156;47.486;12.074;2022-09-29T06:01:50;12.47;;;10.37;;
33858;SDS011;20156;47.486;12.074;2022-09-29T06:04:15;15.07;;;11.70;;
33858;SDS011;20156;47.486;12.074;2022-09-29T06:06:41;16.30;;;11.70;;
33858;SDS011;20156;47.486;12.074;2022-09-29T06:09:06;17.10;;;12.30;;
33858;SDS011;20156;47.486;12.074;2022-09-29T06:11:32;17.97;;;12.47;;
33858;SDS011;20156;47.486;12.074;2022-09-29T06:13:58;17.50;;;13.20;;
33858;SDS011;20156;47.486;12.074;2022-09-29T06:16:25;17.27;;;13.33;;
33858;SDS011;20156;47.486;12.074;2022-09-29T06:18:52;19.03;;;13.20;;
33858;SDS011;20156;47.486;12.074;2022-09-29T06:21:19;19.83;;;13.97;;
33858;SDS011;20156;47.486;12.074;2022-09-29T06:23:47;19.50;;;13.80;;
33858;SDS011;20156;47.486;12.074;2022-09-29T06:26:14;17.93;;;12.97;;
33858;SDS011;20156;47.486;12.074;2022-09-29T06:28:41;17.47;;;13.60;;
33858;SDS011;20156;47.486;12.074;2022-09-29T06:31:07;16.53;;;12.33;;
33858;SDS011;20156;47.486;12.074;2022-09-29T06:33:35;15.50;;;11.57;;
33858;SDS011;20156;47.486;12.074;2022-09-29T06:36:02;14.43;;;11.40;;
33858;SDS011;20156;47.486;12.074;2022-09-29T06:38:57;14.50;;;11.13;;
33858;SDS011;20156;47.486;12.074;2022-09-29T06:41:23;15.83;;;13.33;;
33858;SDS011;20156;47.486;12.074;2022-09-29T06:43:49;15.80;;;12.80;;
33858;SDS011;20156;47.486;12.074;2022-09-29T06:46:14;19.00;;;14.47;;
33858;SDS011;20156;47.486;12.074;2022-09-29T06:48:39;14.00;;;11.40;;
33858;SDS011;20156;47.486;12.074;2022-09-29T06:51:05;15.93;;;11.67;;
33858;SDS011;20156;47.486;12.074;2022-09-29T06:53:32;13.67;;;10.80;;
33858;SDS011;20156;47.486;12.074;2022-09-29T06:55:57;13.73;;;11.03;;
33858;SDS011;20156;47.486;12.074;2022-09-29T06:58:24;10.90;;;9.37;;
33858;SDS011;20156;47.486;12.074;2022-09-29T07:00:50;12.97;;;10.90;;
33858;SDS011;20156;47.486;12.074;2022-09-29T07:03:15;12.50;;;10.57;;
33858;SDS011;20156;47.486;12.074;2022-09-29T07:05:41;9.97;;;8.97;;
33858;SDS011;20156;47.486;12.074;2022-09-29T07:08:07;12.13;;;10.83;;
33858;SDS011;20156;47.486;12.074;2022-09-29T07:10:33;10.33;;;9.33;;
33858;SDS011;20156;47.486;12.074;2022-09-29T07:12:59;13.33;;;11.07;;
33858;SDS011;20156;47.486;12.074;2022-09-29T07:15:25;12.87;;;11.57;;
33858;SDS011;20156;47.486;12.074;2022-09-29T07:17:55;10.20;;;8.17;;
33858;SDS011;20156;47.486;12.074;2022-09-29T07:20:26;10.00;;;8.23;;
33858;SDS011;20156;47.486;12.074;2022-09-29T07:22:52;13.07;;;9.00;;
33858;SDS011;20156;47.486;12.074;2022-09-29T07:25:18;9.03;;;8.13;;
33858;SDS011;20156;47.486;12.074;2022-09-29T07:27:44;10.17;;;9.07;;
33858;SDS011;20156;47.486;12.074;2022-09-29T07:30:11;8.35;;;7.35;;
33858;SDS011;20156;47.486;12.074;2022-09-29T07:32:37;9.52;;;8.13;;
33858;SDS011;20156;47.486;12.074;2022-09-29T07:35:02;10.10;;;8.03;;
33858;SDS011;20156;47.486;12.074;2022-09-29T07:37:28;10.03;;;8.67;;
33858;SDS011;20156;47.486;12.074;2022-09-29T07:39:54;9.23;;;8.33;;
33858;SDS011;20156;47.486;12.074;2022-09-29T07:42:20;8.38;;;7.15;;
33858;SDS011;20156;47.486;12.074;2022-09-29T07:44:45;8.18;;;7.38;;
33858;SDS011;20156;47.486;12.074;2022-09-29T07:47:11;9.47;;;7.27;;
33858;SDS011;20156;47.486;12.074;2022-09-29T07:49:37;10.15;;;7.55;;
33858;SDS011;20156;47.486;12.074;2022-09-29T07:52:03;9.13;;;7.82;;
33858;SDS011;20156;47.486;12.074;2022-09-29T07:54:29;8.60;;;7.70;;
33858;SDS011;20156;47.486;12.074;2022-09-29T07:56:55;11.55;;;10.30;;
33858;SDS011;20156;47.486;12.074;2022-09-29T07:59:21;9.98;;;7.38;;
33858;SDS011;20156;47.486;12.074;2022-09-29T08:01:46;15.77;;;11.25;;
33858;SDS011;20156;47.486;12.074;2022-09-29T08:04:12;16.17;;;14.48;;
33858;SDS011;20156;47.486;12.074;2022-09-29T08:06:38;10.30;;;9.32;;
33858;SDS011;20156;47.486;12.074;2022-09-29T08:09:04;9.98;;;8.73;;
33858;SDS011;20156;47.486;12.074;2022-09-29T08:11:30;8.77;;;7.88;;
33858;SDS011;20156;47.486;12.074;2022-09-29T08:14:01;7.97;;;6.90;;
33858;SDS011;20156;47.486;12.074;2022-09-29T08:16:27;7.50;;;6.70;;
33858;SDS011;20156;47.486;12.074;2022-09-29T08:18:53;7.95;;;7.15;;
33858;SDS011;20156;47.486;12.074;2022-09-29T08:21:18;10.30;;;8.80;;
33858;SDS011;20156;47.486;12.074;2022-09-29T08:23:44;7.68;;;6.88;;
33858;SDS011;20156;47.486;12.074;2022-09-29T08:26:13;8.05;;;7.18;;
33858;SDS011;20156;47.486;12.074;2022-09-29T08:28:40;8.43;;;7.65;;
33858;SDS011;20156;47.486;12.074;2022-09-29T08:31:07;11.07;;;7.80;;
33858;SDS011;20156;47.486;12.074;2022-09-29T08:33:35;24.90;;;10.90;;
33858;SDS011;20156;47.486;12.074;2022-09-29T08:36:01;13.50;;;9.20;;
33858;SDS011;20156;47.486;12.074;2022-09-29T08:38:38;12.40;;;11.10;;
33858;SDS011;20156;47.486;12.074;2022-09-29T08:44:04;7.75;;;7.00;;
33858;SDS011;20156;47.486;12.074;2022-09-29T08:46:37;5.65;;;5.15;;
33858;SDS011;20156;47.486;12.074;2022-09-29T08:49:20;5.05;;;4.55;;
33858;SDS011;20156;47.486;12.074;2022-09-29T08:51:51;5.60;;;4.10;;
33858;SDS011;20156;47.486;12.074;2022-09-29T08:56:54;5.45;;;4.95;;
33858;SDS011;20156;47.486;12.074;2022-09-29T08:59:19;6.15;;;5.55;;
33858;SDS011;20156;47.486;12.074;2022-09-29T09:01:49;7.53;;;6.32;;
33858;SDS011;20156;47.486;12.074;2022-09-29T09:25:54;7.28;;;6.25;;
33858;SDS011;20156;47.486;12.074;2022-09-29T09:31:19;7.13;;;6.43;;
33858;SDS011;20156;47.486;12.074;2022-09-29T09:36:38;8.25;;;6.68;;
33858;SDS011;20156;47.486;12.074;2022-09-29T09:39:14;7.47;;;6.43;;
33858;SDS011;20156;47.486;12.074;2022-09-29T09:41:44;6.65;;;6.05;;
33858;SDS011;20156;47.486;12.074;2022-09-29T09:49:29;7.07;;;6.32;;
33858;SDS011;20156;47.486;12.074;2022-09-29T09:54:39;8.73;;;6.03;;
33858;SDS011;20156;47.486;12.074;2022-09-29T10:02:34;6.93;;;6.22;;
33858;SDS011;20156;47.486;12.074;2022-09-29T10:05:08;7.03;;;5.00;;
33858;SDS011;20156;47.486;12.074;2022-09-29T10:07:37;9.32;;;5.35;;
33858;SDS011;20156;47.486;12.074;2022-09-29T10:10:02;6.15;;;5.55;;
33858;SDS011;20156;47.486;12.074;2022-09-29T10:12:38;5.18;;;4.68;;
33858;SDS011;20156;47.486;12.074;2022-09-29T10:15:04;4.95;;;4.05;;
33858;SDS011;20156;47.486;12.074;2022-09-29T10:17:42;5.25;;;3.80;;
33858;SDS011;20156;47.486;12.074;2022-09-29T10:20:10;4.15;;;3.75;;
33858;SDS011;20156;47.486;12.074;2022-09-29T10:22:36;3.33;;;3.03;;
33858;SDS011;20156;47.486;12.074;2022-09-29T10:25:06;3.38;;;3.00;;
33858;SDS011;20156;47.486;12.074;2022-09-29T10:27:39;3.47;;;3.13;;
33858;SDS011;20156;47.486;12.074;2022-09-29T10:30:18;3.85;;;3.28;;
33858;SDS011;20156;47.486;12.074;2022-09-29T10:32:57;3.00;;;2.70;;
33858;SDS011;20156;47.486;12.074;2022-09-29T10:35:27;2.85;;;2.65;;
33858;SDS011;20156;47.486;12.074;2022-09-29T10:38:00;2.75;;;2.55;;
33858;SDS011;20156;47.486;12.074;2022-09-29T10:40:32;3.17;;;2.88;;
33858;SDS011;20156;47.486;12.074;2022-09-29T10:42:59;3.50;;;2.80;;
33858;SDS011;20156;47.486;12.074;2022-09-29T10:45:47;2.67;;;2.47;;
33858;SDS011;20156;47.486;12.074;2022-09-29T10:48:13;2.47;;;2.30;;
33858;SDS011;20156;47.486;12.074;2022-09-29T10:50:49;4.07;;;2.42;;
33858;SDS011;20156;47.486;12.074;2022-09-29T10:53:36;2.38;;;2.15;;
33858;SDS011;20156;47.486;12.074;2022-09-29T10:56:25;4.63;;;2.95;;
33858;SDS011;20156;47.486;12.074;2022-09-29T10:58:55;1.83;;;1.60;;
33858;SDS011;20156;47.486;12.074;2022-09-29T11:01:24;2.67;;;2.20;;
33858;SDS011;20156;47.486;12.074;2022-09-29T11:03:53;2.40;;;2.20;;
33858;SDS011;20156;47.486;12.074;2022-09-29T11:06:26;2.40;;;2.20;;
33858;SDS011;20156;47.486;12.074;2022-09-29T11:08:54;2.72;;;1.95;;
33858;SDS011;20156;47.486;12.074;2022-09-29T11:11:26;2.38;;;2.13;;
33858;SDS011;20156;47.486;12.074;2022-09-29T11:13:56;1.20;;;1.10;;
33858;SDS011;20156;47.486;12.074;2022-09-29T11:19:03;2.83;;;1.60;;
33858;SDS011;20156;47.486;12.074;2022-09-29T11:31:54;2.80;;;1.58;;
33858;SDS011;20156;47.486;12.074;2022-09-29T11:40:06;2.15;;;1.85;;
33858;SDS011;20156;47.486;12.074;2022-09-29T11:51:32;1.45;;;1.13;;
33858;SDS011;20156;47.486;12.074;2022-09-29T11:54:05;18.00;;;16.35;;
33858;SDS011;20156;47.486;12.074;2022-09-29T12:10:36;1.60;;;1.30;;
33858;SDS011;20156;47.486;12.074;2022-09-29T12:13:05;1.42;;;1.33;;
33858;SDS011;20156;47.486;12.074;2022-09-29T12:18:19;2.42;;;1.90;;
33858;SDS011;20156;47.486;12.074;2022-09-29T12:20:51;2.42;;;2.05;;
33858;SDS011;20156;47.486;12.074;2022-09-29T12:23:19;1.40;;;1.30;;
33858;SDS011;20156;47.486;12.074;2022-09-29T12:25:51;1.48;;;1.20;;
33858;SDS011;20156;47.486;12.074;2022-09-29T12:28:21;1.67;;;1.42;;
33858;SDS011;20156;47.486;12.074;2022-09-29T12:30:56;1.35;;;1.25;;
33858;SDS011;20156;47.486;12.074;2022-09-29T12:33:33;3.67;;;1.23;;
33858;SDS011;20156;47.486;12.074;2022-09-29T12:36:13;6.13;;;1.55;;
33858;SDS011;20156;47.486;12.074;2022-09-29T12:39:19;2.55;;;2.22;;
33858;SDS011;20156;47.486;12.074;2022-09-29T12:44:58;3.42;;;2.63;;
33858;SDS011;20156;47.486;12.074;2022-09-29T12:53:11;2.60;;;2.40;;
33858;SDS011;20156;47.486;12.074;2022-09-29T12:58:47;5.93;;;5.43;;
33858;SDS011;20156;47.486;12.074;2022-09-29T13:01:28;2.40;;;1.98;;
33858;SDS011;20156;47.486;12.074;2022-09-29T13:06:50;1.83;;;1.50;;
33858;SDS011;20156;47.486;12.074;2022-09-29T13:09:29;2.72;;;1.70;;
33858;SDS011;20156;47.486;12.074;2022-09-29T13:17:43;1.73;;;1.63;;
33858;SDS011;20156;47.486;12.074;2022-09-29T13:30:51;4.20;;;1.90;;
33858;SDS011;20156;47.486;12.074;2022-09-29T13:33:20;3.35;;;2.38;;
33858;SDS011;20156;47.486;12.074;2022-09-29T13:35:49;2.22;;;1.70;;
33858;SDS011;20156;47.486;12.074;2022-09-29T13:38:20;1.98;;;1.50;;
33858;SDS011;20156;47.486;12.074;2022-09-29T13:54:21;2.85;;;1.30;;
33858;SDS011;20156;47.486;12.074;2022-09-29T13:57:17;1.80;;;1.52;;
33858;SDS011;20156;47.486;12.074;2022-09-29T14:02:40;1.50;;;1.40;;
33858;SDS011;20156;47.486;12.074;2022-09-29T14:07:50;4.65;;;3.08;;
33858;SDS011;20156;47.486;12.074;2022-09-29T14:10:42;3.08;;;2.00;;
33858;SDS011;20156;47.486;12.074;2022-09-29T14:13:18;3.33;;;2.38;;
33858;SDS011;20156;47.486;12.074;2022-09-29T14:16:08;1.92;;;1.83;;
33858;SDS011;20156;47.486;12.074;2022-09-29T14:18:53;2.30;;;2.10;;
33858;SDS011;20156;47.486;12.074;2022-09-29T14:27:22;2.75;;;1.60;;
33858;SDS011;20156;47.486;12.074;2022-09-29T14:29:49;2.95;;;1.90;;
33858;SDS011;20156;47.486;12.074;2022-09-29T14:32:22;1.90;;;1.80;;
33858;SDS011;20156;47.486;12.074;2022-09-29T14:34:57;1.73;;;1.63;;
33858;SDS011;20156;47.486;12.074;2022-09-29T14:37:25;1.70;;;1.60;;
33858;SDS011;20156;47.486;12.074;2022-09-29T14:39:51;2.40;;;1.80;;
33858;SDS011;20156;47.486;12.074;2022-09-29T14:42:38;2.80;;;1.85;;
33858;SDS011;20156;47.486;12.074;2022-09-29T14:45:03;2.22;;;2.03;;
33858;SDS011;20156;47.486;12.074;2022-09-29T14:47:54;2.08;;;1.90;;
33858;SDS011;20156;47.486;12.074;2022-09-29T14:50:46;3.42;;;2.00;;
33858;SDS011;20156;47.486;12.074;2022-09-29T15:00:02;2.03;;;1.92;;
33858;SDS011;20156;47.486;12.074;2022-09-29T15:02:31;2.10;;;1.90;;
33858;SDS011;20156;47.486;12.074;2022-09-29T15:05:10;2.95;;;2.30;;
33858;SDS011;20156;47.486;12.074;2022-09-29T15:07:39;2.25;;;2.05;;
33858;SDS011;20156;47.486;12.074;2022-09-29T15:10:05;2.05;;;1.95;;
33858;SDS011;20156;47.486;12.074;2022-09-29T15:12:45;1.90;;;1.80;;
33858;SDS011;20156;47.486;12.074;2022-09-29T15:15:48;6.60;;;2.80;;
33858;SDS011;20156;47.486;12.074;2022-09-29T15:18:57;4.95;;;4.45;;
33858;SDS011;20156;47.486;12.074;2022-09-29T15:21:07;5.65;;;4.78;;
33858;SDS011;20156;47.486;12.074;2022-09-29T15:26:29;11.68;;;7.13;;
33858;SDS011;20156;47.486;12.074;2022-09-29T15:28:57;8.95;;;6.25;;
33858;SDS011;20156;47.486;12.074;2022-09-29T15:31:29;2.83;;;2.58;;
33858;SDS011;20156;47.486;12.074;2022-09-29T15:33:58;2.90;;;2.63;;
33858;SDS011;20156;47.486;12.074;2022-09-29T15:36:25;3.55;;;3.25;;
33858;SDS011;20156;47.486;12.074;2022-09-29T15:39:05;5.95;;;5.35;;
33858;SDS011;20156;47.486;12.074;2022-09-29T15:41:37;5.63;;;5.00;;
33858;SDS011;20156;47.486;12.074;2022-09-29T15:44:14;5.57;;;4.15;;
33858;SDS011;20156;47.486;12.074;2022-09-29T15:46:48;4.38;;;3.70;;
33858;SDS011;20156;47.486;12.074;2022-09-29T15:49:19;4.53;;;4.03;;
33858;SDS011;20156;47.486;12.074;2022-09-29T15:51:59;4.30;;;3.90;;
33858;SDS011;20156;47.486;12.074;2022-09-29T15:54:28;1.98;;;1.80;;
33858;SDS011;20156;47.486;12.074;2022-09-29T15:56:59;2.67;;;2.47;;
33858;SDS011;20156;47.486;12.074;2022-09-29T15:59:47;2.65;;;1.80;;
33858;SDS011;20156;47.486;12.074;2022-09-29T16:04:47;3.90;;;1.77;;
33858;SDS011;20156;47.486;12.074;2022-09-29T16:07:24;2.13;;;1.70;;
33858;SDS011;20156;47.486;12.074;2022-09-29T16:09:52;2.70;;;2.10;;
33858;SDS011;20156;47.486;12.074;2022-09-29T16:12:38;3.33;;;1.95;;
33858;SDS011;20156;47.486;12.074;2022-09-29T16:15:14;3.45;;;2.25;;
33858;SDS011;20156;47.486;12.074;2022-09-29T16:17:47;5.95;;;4.60;;
33858;SDS011;20156;47.486;12.074;2022-09-29T16:20:13;5.45;;;3.83;;
33858;SDS011;20156;47.486;12.074;2022-09-29T16:22:47;3.30;;;2.78;;
33858;SDS011;20156;47.486;12.074;2022-09-29T16:25:21;2.53;;;2.33;;
33858;SDS011;20156;47.486;12.074;2022-09-29T16:27:54;3.60;;;3.30;;
33858;SDS011;20156;47.486;12.074;2022-09-29T16:32:52;3.15;;;2.75;;
33858;SDS011;20156;47.486;12.074;2022-09-29T16:35:37;3.30;;;3.00;;
33858;SDS011;20156;47.486;12.074;2022-09-29T16:38:16;5.68;;;4.70;;
33858;SDS011;20156;47.486;12.074;2022-09-29T16:40:42;3.85;;;3.45;;
33858;SDS011;20156;47.486;12.074;2022-09-29T16:46:06;3.28;;;2.97;;
33858;SDS011;20156;47.486;12.074;2022-09-29T16:48:37;5.35;;;3.60;;
33858;SDS011;20156;47.486;12.074;2022-09-29T16:51:18;3.80;;;3.42;;
33858;SDS011;20156;47.486;12.074;2022-09-29T16:53:46;4.03;;;3.63;;
33858;SDS011;20156;47.486;12.074;2022-09-29T16:56:20;4.35;;;3.95;;
33858;SDS011;20156;47.486;12.074;2022-09-29T16:59:04;3.92;;;3.63;;
33858;SDS011;20156;47.486;12.074;2022-09-29T17:01:35;3.88;;;3.58;;
33858;SDS011;20156;47.486;12.074;2022-09-29T17:04:01;3.80;;;3.50;;
33858;SDS011;20156;47.486;12.074;2022-09-29T17:06:27;5.07;;;4.20;;
33858;SDS011;20156;47.486;12.074;2022-09-29T17:08:55;3.92;;;3.63;;
33858;SDS011;20156;47.486;12.074;2022-09-29T17:11:21;4.20;;;3.63;;
33858;SDS011;20156;47.486;12.074;2022-09-29T17:13:47;4.15;;;3.83;;
33858;SDS011;20156;47.486;12.074;2022-09-29T17:16:12;5.68;;;5.18;;
33858;SDS011;20156;47.486;12.074;2022-09-29T17:18:45;3.88;;;3.58;;
33858;SDS011;20156;47.486;12.074;2022-09-29T17:21:14;3.00;;;2.80;;
33858;SDS011;20156;47.486;12.074;2022-09-29T17:23:39;4.32;;;3.92;;
33858;SDS011;20156;47.486;12.074;2022-09-29T17:26:05;6.63;;;5.15;;
33858;SDS011;20156;47.486;12.074;2022-09-29T17:29:00;3.90;;;3.50;;
33858;SDS011;20156;47.486;12.074;2022-09-29T17:31:25;4.70;;;3.63;;
33858;SDS011;20156;47.486;12.074;2022-09-29T17:33:50;3.72;;;3.25;;
33858;SDS011;20156;47.486;12.074;2022-09-29T17:36:16;3.40;;;3.10;;
33858;SDS011;20156;47.486;12.074;2022-09-29T17:38:42;4.32;;;3.92;;
33858;SDS011;20156;47.486;12.074;2022-09-29T17:41:08;3.75;;;3.38;;
33858;SDS011;20156;47.486;12.074;2022-09-29T17:43:40;4.15;;;3.80;;
33858;SDS011;20156;47.486;12.074;2022-09-29T17:46:10;5.85;;;4.25;;
33858;SDS011;20156;47.486;12.074;2022-09-29T17:48:37;6.30;;;4.88;;
33858;SDS011;20156;47.486;12.074;2022-09-29T17:51:02;6.35;;;4.88;;
33858;SDS011;20156;47.486;12.074;2022-09-29T17:53:29;8.02;;;5.68;;
33858;SDS011;20156;47.486;12.074;2022-09-29T17:55:55;5.40;;;4.68;;
33858;SDS011;20156;47.486;12.074;2022-09-29T17:58:21;4.38;;;3.97;;
33858;SDS011;20156;47.486;12.074;2022-09-29T18:00:48;4.43;;;3.55;;
33858;SDS011;20156;47.486;12.074;2022-09-29T18:03:16;4.78;;;4.30;;
33858;SDS011;20156;47.486;12.074;2022-09-29T18:05:47;4.43;;;3.80;;
33858;SDS011;20156;47.486;12.074;2022-09-29T18:08:20;4.38;;;4.00;;